sensor_id;sensor_type;location;lat;lon;timestamp;temperature;humidity
20171;DHT22;10245;51.344;6.620;2023-03-01T00:00:24;0.70;72.60
20171;DHT22;10245;51.344;6.620;2023-03-01T00:02:47;0.70;72.20
20171;DHT22;10245;51.344;6.620;2023-03-01T00:05:10;0.70;71.30
20171;DHT22;10245;51.344;6.620;2023-03-01T00:07:34;0.70;71.50
20171;DHT22;10245;51.344;6.620;2023-03-01T00:09:57;0.80;72.10
20171;DHT22;10245;51.344;6.620;2023-03-01T00:12:22;0.70;71.70
20171;DHT22;10245;51.344;6.620;2023-03-01T00:14:45;0.70;72.50
20171;DHT22;10245;51.344;6.620;2023-03-01T00:17:08;0.70;71.90
20171;DHT22;10245;51.344;6.620;2023-03-01T00:19:32;0.60;72.30
20171;DHT22;10245;51.344;6.620;2023-03-01T00:21:56;0.50;72.50
20171;DHT22;10245;51.344;6.620;2023-03-01T00:24:19;0.50;72.80
20171;DHT22;10245;51.344;6.620;2023-03-01T00:26:42;0.50;72.90
20171;DHT22;10245;51.344;6.620;2023-03-01T00:29:07;0.50;73.20
20171;DHT22;10245;51.344;6.620;2023-03-01T00:31:32;0.50;72.90
20171;DHT22;10245;51.344;6.620;2023-03-01T00:33:58;0.50;72.90
20171;DHT22;10245;51.344;6.620;2023-03-01T00:36:25;0.50;72.40
20171;DHT22;10245;51.344;6.620;2023-03-01T00:38:50;0.50;72.30
20171;DHT22;10245;51.344;6.620;2023-03-01T00:41:15;0.50;72.30
20171;DHT22;10245;51.344;6.620;2023-03-01T00:43:39;0.50;72.30
20171;DHT22;10245;51.344;6.620;2023-03-01T00:46:06;0.60;72.10
20171;DHT22;10245;51.344;6.620;2023-03-01T00:48:31;0.50;72.50
20171;DHT22;10245;51.344;6.620;2023-03-01T00:50:54;0.50;72.70
20171;DHT22;10245;51.344;6.620;2023-03-01T00:53:17;0.50;73.10
20171;DHT22;10245;51.344;6.620;2023-03-01T00:55:41;0.40;72.80
20171;DHT22;10245;51.344;6.620;2023-03-01T00:58:04;0.40;72.80
20171;DHT22;10245;51.344;6.620;2023-03-01T01:00:27;0.30;73.10
20171;DHT22;10245;51.344;6.620;2023-03-01T01:02:52;0.30;73.30
20171;DHT22;10245;51.344;6.620;2023-03-01T01:05:16;0.40;73.40
20171;DHT22;10245;51.344;6.620;2023-03-01T01:07:42;0.20;73.10
20171;DHT22;10245;51.344;6.620;2023-03-01T01:10:06;0.30;73.70
20171;DHT22;10245;51.344;6.620;2023-03-01T01:12:34;0.20;73.50
20171;DHT22;10245;51.344;6.620;2023-03-01T01:14:59;0.10;73.60
20171;DHT22;10245;51.344;6.620;2023-03-01T01:17:22;0.10;73.80
20171;DHT22;10245;51.344;6.620;2023-03-01T01:19:47;0.10;74.20
20171;DHT22;10245;51.344;6.620;2023-03-01T01:22:10;0.10;74.70
20171;DHT22;10245;51.344;6.620;2023-03-01T01:24:34;0.10;74.40
20171;DHT22;10245;51.344;6.620;2023-03-01T01:26:58;0.00;74.70
20171;DHT22;10245;51.344;6.620;2023-03-01T01:29:21;0.00;75.00
20171;DHT22;10245;51.344;6.620;2023-03-01T01:31:45;0.00;75.40
20171;DHT22;10245;51.344;6.620;2023-03-01T01:34:13;0.00;75.20
20171;DHT22;10245;51.344;6.620;2023-03-01T01:36:38;0.00;75.40
20171;DHT22;10245;51.344;6.620;2023-03-01T01:39:02;0.00;76.20
20171;DHT22;10245;51.344;6.620;2023-03-01T01:41:28;0.00;76.10
20171;DHT22;10245;51.344;6.620;2023-03-01T01:44:10;0.00;75.40
20171;DHT22;10245;51.344;6.620;2023-03-01T01:46:39;0.00;75.40
20171;DHT22;10245;51.344;6.620;2023-03-01T01:49:07;-0.10;76.00
20171;DHT22;10245;51.344;6.620;2023-03-01T01:51:40;0.00;75.20
20171;DHT22;10245;51.344;6.620;2023-03-01T01:54:09;0.00;75.70
20171;DHT22;10245;51.344;6.620;2023-03-01T01:56:36;-0.10;75.60
20171;DHT22;10245;51.344;6.620;2023-03-01T01:59:01;-0.10;75.60
20171;DHT22;10245;51.344;6.620;2023-03-01T02:01:25;-0.10;75.80
20171;DHT22;10245;51.344;6.620;2023-03-01T02:03:48;-0.10;76.00
20171;DHT22;10245;51.344;6.620;2023-03-01T02:06:17;-0.10;75.90
20171;DHT22;10245;51.344;6.620;2023-03-01T02:08:46;-0.20;75.60
20171;DHT22;10245;51.344;6.620;2023-03-01T02:11:11;-0.20;75.70
20171;DHT22;10245;51.344;6.620;2023-03-01T02:13:36;-0.10;76.00
20171;DHT22;10245;51.344;6.620;2023-03-01T02:16:03;-0.20;75.90
20171;DHT22;10245;51.344;6.620;2023-03-01T02:18:26;-0.10;76.20
20171;DHT22;10245;51.344;6.620;2023-03-01T02:21:05;-0.10;76.10
20171;DHT22;10245;51.344;6.620;2023-03-01T02:23:34;-0.20;75.60
20171;DHT22;10245;51.344;6.620;2023-03-01T02:26:01;-0.10;75.30
20171;DHT22;10245;51.344;6.620;2023-03-01T02:28:32;-0.20;75.30
20171;DHT22;10245;51.344;6.620;2023-03-01T02:30:56;-0.20;75.10
20171;DHT22;10245;51.344;6.620;2023-03-01T02:33:39;-0.20;75.40
20171;DHT22;10245;51.344;6.620;2023-03-01T02:36:05;-0.20;75.90
20171;DHT22;10245;51.344;6.620;2023-03-01T02:38:31;-0.20;76.10
20171;DHT22;10245;51.344;6.620;2023-03-01T02:40:56;-0.40;75.90
20171;DHT22;10245;51.344;6.620;2023-03-01T02:43:23;-0.30;75.60
20171;DHT22;10245;51.344;6.620;2023-03-01T02:45:51;-0.30;75.90
20171;DHT22;10245;51.344;6.620;2023-03-01T02:48:15;-0.40;76.10
20171;DHT22;10245;51.344;6.620;2023-03-01T02:50:53;-0.40;76.70
20171;DHT22;10245;51.344;6.620;2023-03-01T02:53:32;-0.20;76.50
20171;DHT22;10245;51.344;6.620;2023-03-01T02:55:59;-0.30;76.00
20171;DHT22;10245;51.344;6.620;2023-03-01T02:58:24;-0.40;76.40
20171;DHT22;10245;51.344;6.620;2023-03-01T03:00:47;-0.40;77.00
20171;DHT22;10245;51.344;6.620;2023-03-01T03:03:13;-0.40;77.00
20171;DHT22;10245;51.344;6.620;2023-03-01T03:05:38;-0.40;76.80
20171;DHT22;10245;51.344;6.620;2023-03-01T03:08:03;-0.40;76.80
20171;DHT22;10245;51.344;6.620;2023-03-01T03:10:32;-0.50;76.80
20171;DHT22;10245;51.344;6.620;2023-03-01T03:12:59;-0.50;77.20
20171;DHT22;10245;51.344;6.620;2023-03-01T03:15:25;-0.40;77.50
20171;DHT22;10245;51.344;6.620;2023-03-01T03:17:52;-0.40;77.20
20171;DHT22;10245;51.344;6.620;2023-03-01T03:20:18;-0.50;76.70
20171;DHT22;10245;51.344;6.620;2023-03-01T03:22:43;-0.50;77.20
20171;DHT22;10245;51.344;6.620;2023-03-01T03:25:06;-0.60;77.10
20171;DHT22;10245;51.344;6.620;2023-03-01T03:27:32;-0.50;76.90
20171;DHT22;10245;51.344;6.620;2023-03-01T03:29:55;-0.60;76.70
20171;DHT22;10245;51.344;6.620;2023-03-01T03:32:18;-0.50;76.60
20171;DHT22;10245;51.344;6.620;2023-03-01T03:34:42;-0.50;76.40
20171;DHT22;10245;51.344;6.620;2023-03-01T03:37:07;-0.50;76.70
20171;DHT22;10245;51.344;6.620;2023-03-01T03:39:51;-0.40;77.00
20171;DHT22;10245;51.344;6.620;2023-03-01T03:42:16;-0.60;76.60
20171;DHT22;10245;51.344;6.620;2023-03-01T03:44:39;-0.60;76.60
20171;DHT22;10245;51.344;6.620;2023-03-01T03:47:03;-0.50;77.40
20171;DHT22;10245;51.344;6.620;2023-03-01T03:49:26;-0.60;77.40
20171;DHT22;10245;51.344;6.620;2023-03-01T03:51:49;-0.60;77.50
20171;DHT22;10245;51.344;6.620;2023-03-01T03:54:14;-0.60;76.60
20171;DHT22;10245;51.344;6.620;2023-03-01T03:56:38;-0.60;77.30
20171;DHT22;10245;51.344;6.620;2023-03-01T03:59:02;-0.60;77.60
20171;DHT22;10245;51.344;6.620;2023-03-01T04:01:25;-0.60;77.10
20171;DHT22;10245;51.344;6.620;2023-03-01T04:03:48;-0.70;77.00
20171;DHT22;10245;51.344;6.620;2023-03-01T04:06:16;-0.70;77.40
20171;DHT22;10245;51.344;6.620;2023-03-01T04:08:40;-0.70;77.70
20171;DHT22;10245;51.344;6.620;2023-03-01T04:11:05;-0.60;77.10
20171;DHT22;10245;51.344;6.620;2023-03-01T04:13:43;-0.60;77.10
20171;DHT22;10245;51.344;6.620;2023-03-01T04:16:06;-0.60;76.70
20171;DHT22;10245;51.344;6.620;2023-03-01T04:18:30;-0.70;76.80
20171;DHT22;10245;51.344;6.620;2023-03-01T04:20:53;-0.60;77.10
20171;DHT22;10245;51.344;6.620;2023-03-01T04:23:19;-0.70;77.10
20171;DHT22;10245;51.344;6.620;2023-03-01T04:25:47;-0.80;76.90
20171;DHT22;10245;51.344;6.620;2023-03-01T04:28:16;-0.70;77.00
20171;DHT22;10245;51.344;6.620;2023-03-01T04:30:39;-0.70;77.40
20171;DHT22;10245;51.344;6.620;2023-03-01T04:33:04;-0.80;77.20
20171;DHT22;10245;51.344;6.620;2023-03-01T04:35:28;-0.80;77.10
20171;DHT22;10245;51.344;6.620;2023-03-01T04:37:51;-0.70;76.80
20171;DHT22;10245;51.344;6.620;2023-03-01T04:40:15;-0.70;77.30
20171;DHT22;10245;51.344;6.620;2023-03-01T04:42:39;-0.80;77.50
20171;DHT22;10245;51.344;6.620;2023-03-01T04:45:04;-0.90;77.50
20171;DHT22;10245;51.344;6.620;2023-03-01T04:47:34;-0.70;77.80
20171;DHT22;10245;51.344;6.620;2023-03-01T04:49:59;-0.80;77.30
20171;DHT22;10245;51.344;6.620;2023-03-01T04:52:23;-0.80;77.60
20171;DHT22;10245;51.344;6.620;2023-03-01T04:54:46;-0.90;77.00
20171;DHT22;10245;51.344;6.620;2023-03-01T04:57:10;-0.90;77.40
20171;DHT22;10245;51.344;6.620;2023-03-01T04:59:33;-0.90;77.60
20171;DHT22;10245;51.344;6.620;2023-03-01T05:01:59;-0.90;77.60
20171;DHT22;10245;51.344;6.620;2023-03-01T05:04:23;-0.90;77.70
20171;DHT22;10245;51.344;6.620;2023-03-01T05:06:47;-0.90;77.90
20171;DHT22;10245;51.344;6.620;2023-03-01T05:09:11;-0.90;78.50
20171;DHT22;10245;51.344;6.620;2023-03-01T05:11:34;-0.90;77.80
20171;DHT22;10245;51.344;6.620;2023-03-01T05:13:58;-1.00;78.00
20171;DHT22;10245;51.344;6.620;2023-03-01T05:16:21;-1.00;77.80
20171;DHT22;10245;51.344;6.620;2023-03-01T05:18:46;-1.10;78.10
20171;DHT22;10245;51.344;6.620;2023-03-01T05:21:13;-1.00;78.00
20171;DHT22;10245;51.344;6.620;2023-03-01T05:23:38;-1.00;77.70
20171;DHT22;10245;51.344;6.620;2023-03-01T05:26:03;-1.00;77.70
20171;DHT22;10245;51.344;6.620;2023-03-01T05:28:32;-1.00;77.20
20171;DHT22;10245;51.344;6.620;2023-03-01T05:30:56;-0.90;77.30
20171;DHT22;10245;51.344;6.620;2023-03-01T05:33:20;-0.90;76.90
20171;DHT22;10245;51.344;6.620;2023-03-01T05:35:45;-0.90;77.00
20171;DHT22;10245;51.344;6.620;2023-03-01T05:38:11;-0.90;77.20
20171;DHT22;10245;51.344;6.620;2023-03-01T05:40:35;-0.90;77.10
20171;DHT22;10245;51.344;6.620;2023-03-01T05:42:59;-1.00;77.20
20171;DHT22;10245;51.344;6.620;2023-03-01T05:45:24;-1.00;77.50
20171;DHT22;10245;51.344;6.620;2023-03-01T05:47:49;-1.00;77.30
20171;DHT22;10245;51.344;6.620;2023-03-01T05:50:14;-1.00;77.10
20171;DHT22;10245;51.344;6.620;2023-03-01T05:52:42;-1.00;77.10
20171;DHT22;10245;51.344;6.620;2023-03-01T05:55:06;-1.00;77.30
20171;DHT22;10245;51.344;6.620;2023-03-01T05:57:30;-1.00;77.30
20171;DHT22;10245;51.344;6.620;2023-03-01T05:59:53;-1.00;77.60
20171;DHT22;10245;51.344;6.620;2023-03-01T06:02:16;-0.90;78.10
20171;DHT22;10245;51.344;6.620;2023-03-01T06:04:40;-0.90;78.00
20171;DHT22;10245;51.344;6.620;2023-03-01T06:07:04;-1.00;77.50
20171;DHT22;10245;51.344;6.620;2023-03-01T06:09:29;-1.10;77.50
20171;DHT22;10245;51.344;6.620;2023-03-01T06:11:53;-1.20;77.70
20171;DHT22;10245;51.344;6.620;2023-03-01T06:14:16;-1.20;78.10
20171;DHT22;10245;51.344;6.620;2023-03-01T06:16:40;-1.20;78.40
20171;DHT22;10245;51.344;6.620;2023-03-01T06:19:03;-1.10;78.50
20171;DHT22;10245;51.344;6.620;2023-03-01T06:21:27;-1.10;78.60
20171;DHT22;10245;51.344;6.620;2023-03-01T06:23:50;-1.10;79.00
20171;DHT22;10245;51.344;6.620;2023-03-01T06:26:15;-1.10;79.00
20171;DHT22;10245;51.344;6.620;2023-03-01T06:28:39;-1.20;79.30
20171;DHT22;10245;51.344;6.620;2023-03-01T06:31:03;-1.20;79.00
20171;DHT22;10245;51.344;6.620;2023-03-01T06:33:30;-1.10;78.90
20171;DHT22;10245;51.344;6.620;2023-03-01T06:35:55;-1.20;78.60
20171;DHT22;10245;51.344;6.620;2023-03-01T06:38:18;-1.20;78.60
20171;DHT22;10245;51.344;6.620;2023-03-01T06:40:41;-1.10;78.80
20171;DHT22;10245;51.344;6.620;2023-03-01T06:43:06;-1.10;78.60
20171;DHT22;10245;51.344;6.620;2023-03-01T06:45:30;-1.00;79.10
20171;DHT22;10245;51.344;6.620;2023-03-01T06:48:01;-1.20;78.30
20171;DHT22;10245;51.344;6.620;2023-03-01T06:50:26;-1.20;78.20
20171;DHT22;10245;51.344;6.620;2023-03-01T06:52:55;-1.10;78.80
20171;DHT22;10245;51.344;6.620;2023-03-01T06:55:19;-1.10;78.80
20171;DHT22;10245;51.344;6.620;2023-03-01T06:57:42;-1.10;78.80
20171;DHT22;10245;51.344;6.620;2023-03-01T07:00:09;-1.00;79.00
20171;DHT22;10245;51.344;6.620;2023-03-01T07:02:33;-1.20;78.70
20171;DHT22;10245;51.344;6.620;2023-03-01T07:04:56;-1.10;79.00
20171;DHT22;10245;51.344;6.620;2023-03-01T07:07:19;-1.10;79.20
20171;DHT22;10245;51.344;6.620;2023-03-01T07:09:43;-1.10;78.80
20171;DHT22;10245;51.344;6.620;2023-03-01T07:12:06;-1.10;78.80
20171;DHT22;10245;51.344;6.620;2023-03-01T07:14:30;-1.10;79.30
20171;DHT22;10245;51.344;6.620;2023-03-01T07:16:55;-1.00;78.90
20171;DHT22;10245;51.344;6.620;2023-03-01T07:19:18;-1.00;78.90
20171;DHT22;10245;51.344;6.620;2023-03-01T07:21:42;-0.90;79.00
20171;DHT22;10245;51.344;6.620;2023-03-01T07:24:06;-0.90;78.70
20171;DHT22;10245;51.344;6.620;2023-03-01T07:26:30;-0.80;78.50
20171;DHT22;10245;51.344;6.620;2023-03-01T07:28:53;-0.80;78.20
20171;DHT22;10245;51.344;6.620;2023-03-01T07:31:17;-0.70;78.10
20171;DHT22;10245;51.344;6.620;2023-03-01T07:33:41;-0.60;77.80
20171;DHT22;10245;51.344;6.620;2023-03-01T07:36:07;-0.60;77.30
20171;DHT22;10245;51.344;6.620;2023-03-01T07:38:31;-0.50;77.30
20171;DHT22;10245;51.344;6.620;2023-03-01T07:40:58;-0.40;77.00
20171;DHT22;10245;51.344;6.620;2023-03-01T07:43:22;-0.30;77.00
20171;DHT22;10245;51.344;6.620;2023-03-01T07:45:46;0.00;75.90
20171;DHT22;10245;51.344;6.620;2023-03-01T07:48:09;0.10;75.30
20171;DHT22;10245;51.344;6.620;2023-03-01T07:50:34;0.30;75.10
20171;DHT22;10245;51.344;6.620;2023-03-01T07:52:57;0.40;75.80
20171;DHT22;10245;51.344;6.620;2023-03-01T07:55:21;0.50;74.20
20171;DHT22;10245;51.344;6.620;2023-03-01T07:57:44;0.80;73.60
20171;DHT22;10245;51.344;6.620;2023-03-01T08:00:09;0.90;74.10
20171;DHT22;10245;51.344;6.620;2023-03-01T08:02:34;0.90;71.80
20171;DHT22;10245;51.344;6.620;2023-03-01T08:04:57;1.10;72.70
20171;DHT22;10245;51.344;6.620;2023-03-01T08:07:22;1.30;71.50
20171;DHT22;10245;51.344;6.620;2023-03-01T08:09:45;1.30;72.40
20171;DHT22;10245;51.344;6.620;2023-03-01T08:12:08;1.30;71.10
20171;DHT22;10245;51.344;6.620;2023-03-01T08:14:32;1.30;72.00
20171;DHT22;10245;51.344;6.620;2023-03-01T08:16:56;1.30;71.30
20171;DHT22;10245;51.344;6.620;2023-03-01T08:19:19;1.30;71.30
20171;DHT22;10245;51.344;6.620;2023-03-01T08:21:42;1.30;71.80
20171;DHT22;10245;51.344;6.620;2023-03-01T08:24:08;1.60;71.50
20171;DHT22;10245;51.344;6.620;2023-03-01T08:26:33;1.60;70.40
20171;DHT22;10245;51.344;6.620;2023-03-01T08:28:56;1.60;70.30
20171;DHT22;10245;51.344;6.620;2023-03-01T08:31:21;2.00;69.50
20171;DHT22;10245;51.344;6.620;2023-03-01T08:33:47;2.20;67.50
20171;DHT22;10245;51.344;6.620;2023-03-01T08:36:13;2.30;67.80
20171;DHT22;10245;51.344;6.620;2023-03-01T08:38:37;2.10;67.60
20171;DHT22;10245;51.344;6.620;2023-03-01T08:41:03;2.30;67.30
20171;DHT22;10245;51.344;6.620;2023-03-01T08:43:26;2.40;67.40
20171;DHT22;10245;51.344;6.620;2023-03-01T08:45:50;2.70;67.10
20171;DHT22;10245;51.344;6.620;2023-03-01T08:48:13;2.50;67.90
20171;DHT22;10245;51.344;6.620;2023-03-01T08:50:36;2.80;65.90
20171;DHT22;10245;51.344;6.620;2023-03-01T08:53:02;2.90;65.20
20171;DHT22;10245;51.344;6.620;2023-03-01T08:55:26;3.00;64.20
20171;DHT22;10245;51.344;6.620;2023-03-01T08:57:50;3.10;65.20
20171;DHT22;10245;51.344;6.620;2023-03-01T09:00:14;3.50;63.00
20171;DHT22;10245;51.344;6.620;2023-03-01T09:02:39;3.30;61.60
20171;DHT22;10245;51.344;6.620;2023-03-01T09:05:02;3.60;62.60
20171;DHT22;10245;51.344;6.620;2023-03-01T09:07:26;3.60;61.40
20171;DHT22;10245;51.344;6.620;2023-03-01T09:09:50;3.60;61.40
20171;DHT22;10245;51.344;6.620;2023-03-01T09:12:15;3.50;62.00
20171;DHT22;10245;51.344;6.620;2023-03-01T09:14:39;3.70;62.20
20171;DHT22;10245;51.344;6.620;2023-03-01T09:17:03;3.80;59.40
20171;DHT22;10245;51.344;6.620;2023-03-01T09:19:27;3.80;59.50
20171;DHT22;10245;51.344;6.620;2023-03-01T09:21:50;3.70;59.30
20171;DHT22;10245;51.344;6.620;2023-03-01T09:24:15;3.80;58.30
20171;DHT22;10245;51.344;6.620;2023-03-01T09:26:38;4.00;58.00
20171;DHT22;10245;51.344;6.620;2023-03-01T09:29:01;3.90;58.10
20171;DHT22;10245;51.344;6.620;2023-03-01T09:31:26;3.90;58.90
20171;DHT22;10245;51.344;6.620;2023-03-01T09:33:51;4.00;57.80
20171;DHT22;10245;51.344;6.620;2023-03-01T09:36:17;4.10;57.10
20171;DHT22;10245;51.344;6.620;2023-03-01T09:38:42;4.00;58.50
20171;DHT22;10245;51.344;6.620;2023-03-01T09:41:11;4.10;58.60
20171;DHT22;10245;51.344;6.620;2023-03-01T09:43:49;4.20;57.30
20171;DHT22;10245;51.344;6.620;2023-03-01T09:46:17;4.30;58.70
20171;DHT22;10245;51.344;6.620;2023-03-01T09:48:51;4.50;58.20
20171;DHT22;10245;51.344;6.620;2023-03-01T09:51:33;4.40;56.20
20171;DHT22;10245;51.344;6.620;2023-03-01T09:53:58;4.30;58.00
20171;DHT22;10245;51.344;6.620;2023-03-01T09:56:28;4.40;57.30
20171;DHT22;10245;51.344;6.620;2023-03-01T09:59:00;4.40;56.10
20171;DHT22;10245;51.344;6.620;2023-03-01T10:01:33;4.50;56.60
20171;DHT22;10245;51.344;6.620;2023-03-01T10:04:28;4.50;57.10
20171;DHT22;10245;51.344;6.620;2023-03-01T10:07:07;4.80;56.00
20171;DHT22;10245;51.344;6.620;2023-03-01T10:09:39;4.70;57.10
20171;DHT22;10245;51.344;6.620;2023-03-01T10:12:08;5.00;56.50
20171;DHT22;10245;51.344;6.620;2023-03-01T10:14:36;5.00;56.60
20171;DHT22;10245;51.344;6.620;2023-03-01T10:17:04;4.70;56.70
20171;DHT22;10245;51.344;6.620;2023-03-01T10:19:32;5.00;57.30
20171;DHT22;10245;51.344;6.620;2023-03-01T10:22:03;4.90;54.20
20171;DHT22;10245;51.344;6.620;2023-03-01T10:24:34;5.00;56.40
20171;DHT22;10245;51.344;6.620;2023-03-01T10:27:01;4.90;55.00
20171;DHT22;10245;51.344;6.620;2023-03-01T10:29:33;5.00;55.00
20171;DHT22;10245;51.344;6.620;2023-03-01T10:31:59;5.20;53.70
20171;DHT22;10245;51.344;6.620;2023-03-01T10:34:28;5.20;54.10
20171;DHT22;10245;51.344;6.620;2023-03-01T10:36:56;5.20;53.60
20171;DHT22;10245;51.344;6.620;2023-03-01T10:39:22;5.20;53.30
20171;DHT22;10245;51.344;6.620;2023-03-01T10:41:58;5.50;53.00
20171;DHT22;10245;51.344;6.620;2023-03-01T10:44:43;5.50;52.40
20171;DHT22;10245;51.344;6.620;2023-03-01T10:47:17;5.80;52.70
20171;DHT22;10245;51.344;6.620;2023-03-01T10:49:56;6.00;52.20
20171;DHT22;10245;51.344;6.620;2023-03-01T10:52:26;6.00;51.10
20171;DHT22;10245;51.344;6.620;2023-03-01T10:54:54;5.80;51.50
20171;DHT22;10245;51.344;6.620;2023-03-01T10:57:34;5.80;53.50
20171;DHT22;10245;51.344;6.620;2023-03-01T11:00:22;5.80;51.10
20171;DHT22;10245;51.344;6.620;2023-03-01T11:02:50;5.80;51.10
20171;DHT22;10245;51.344;6.620;2023-03-01T11:05:26;5.90;50.90
20171;DHT22;10245;51.344;6.620;2023-03-01T11:07:51;5.70;50.20
20171;DHT22;10245;51.344;6.620;2023-03-01T11:10:18;5.60;49.30
20171;DHT22;10245;51.344;6.620;2023-03-01T11:12:43;5.70;50.40
20171;DHT22;10245;51.344;6.620;2023-03-01T11:15:20;5.80;50.60
20171;DHT22;10245;51.344;6.620;2023-03-01T11:17:46;6.10;50.50
20171;DHT22;10245;51.344;6.620;2023-03-01T11:20:29;6.20;50.90
20171;DHT22;10245;51.344;6.620;2023-03-01T11:22:56;6.20;49.90
20171;DHT22;10245;51.344;6.620;2023-03-01T11:25:26;6.30;50.60
20171;DHT22;10245;51.344;6.620;2023-03-01T11:27:52;6.40;49.20
20171;DHT22;10245;51.344;6.620;2023-03-01T11:30:20;6.60;50.10
20171;DHT22;10245;51.344;6.620;2023-03-01T11:32:53;6.50;48.00
20171;DHT22;10245;51.344;6.620;2023-03-01T11:35:26;6.50;49.50
20171;DHT22;10245;51.344;6.620;2023-03-01T11:38:02;6.70;47.30
20171;DHT22;10245;51.344;6.620;2023-03-01T11:40:32;6.50;47.20
20171;DHT22;10245;51.344;6.620;2023-03-01T11:43:04;6.40;49.10
20171;DHT22;10245;51.344;6.620;2023-03-01T11:45:38;6.70;47.60
20171;DHT22;10245;51.344;6.620;2023-03-01T11:48:17;6.80;49.70
20171;DHT22;10245;51.344;6.620;2023-03-01T11:51:19;7.10;48.90
20171;DHT22;10245;51.344;6.620;2023-03-01T11:53:55;7.20;48.10
20171;DHT22;10245;51.344;6.620;2023-03-01T11:56:30;7.30;48.40
20171;DHT22;10245;51.344;6.620;2023-03-01T11:59:25;7.40;47.00
20171;DHT22;10245;51.344;6.620;2023-03-01T12:06:00;7.30;47.00
20171;DHT22;10245;51.344;6.620;2023-03-01T12:08:35;7.30;45.30
20171;DHT22;10245;51.344;6.620;2023-03-01T12:11:06;7.00;47.30
20171;DHT22;10245;51.344;6.620;2023-03-01T12:13:51;7.30;46.20
20171;DHT22;10245;51.344;6.620;2023-03-01T12:16:52;7.30;48.40
20171;DHT22;10245;51.344;6.620;2023-03-01T12:19:31;7.40;46.50
20171;DHT22;10245;51.344;6.620;2023-03-01T12:22:14;7.50;45.00
20171;DHT22;10245;51.344;6.620;2023-03-01T12:25:19;7.50;46.00
20171;DHT22;10245;51.344;6.620;2023-03-01T12:28:09;7.30;45.70
20171;DHT22;10245;51.344;6.620;2023-03-01T12:30:54;7.50;47.10
20171;DHT22;10245;51.344;6.620;2023-03-01T12:33:31;7.80;45.40
20171;DHT22;10245;51.344;6.620;2023-03-01T12:36:20;7.40;44.90
20171;DHT22;10245;51.344;6.620;2023-03-01T12:38:58;7.60;44.30
20171;DHT22;10245;51.344;6.620;2023-03-01T12:41:46;7.10;44.90
20171;DHT22;10245;51.344;6.620;2023-03-01T12:44:27;7.50;48.60
20171;DHT22;10245;51.344;6.620;2023-03-01T12:47:07;7.90;45.60
20171;DHT22;10245;51.344;6.620;2023-03-01T12:49:40;7.60;44.90
20171;DHT22;10245;51.344;6.620;2023-03-01T12:52:11;7.50;44.30
20171;DHT22;10245;51.344;6.620;2023-03-01T12:54:37;7.80;44.20
20171;DHT22;10245;51.344;6.620;2023-03-01T12:57:14;7.90;45.00
20171;DHT22;10245;51.344;6.620;2023-03-01T12:59:44;7.90;44.80
20171;DHT22;10245;51.344;6.620;2023-03-01T13:02:16;7.70;44.10
20171;DHT22;10245;51.344;6.620;2023-03-01T13:04:53;7.60;43.90
20171;DHT22;10245;51.344;6.620;2023-03-01T13:07:30;7.50;44.20
20171;DHT22;10245;51.344;6.620;2023-03-01T13:10:16;7.40;44.20
20171;DHT22;10245;51.344;6.620;2023-03-01T13:12:51;7.50;45.30
20171;DHT22;10245;51.344;6.620;2023-03-01T13:15:33;7.30;44.40
20171;DHT22;10245;51.344;6.620;2023-03-01T13:17:58;7.20;45.60
20171;DHT22;10245;51.344;6.620;2023-03-01T13:20:26;7.50;46.70
20171;DHT22;10245;51.344;6.620;2023-03-01T13:23:02;7.70;45.80
20171;DHT22;10245;51.344;6.620;2023-03-01T13:25:27;7.90;45.80
20171;DHT22;10245;51.344;6.620;2023-03-01T13:34:48;7.80;46.00
20171;DHT22;10245;51.344;6.620;2023-03-01T13:37:32;7.70;46.70
20171;DHT22;10245;51.344;6.620;2023-03-01T13:39:59;7.70;45.50
20171;DHT22;10245;51.344;6.620;2023-03-01T13:42:41;7.40;45.60
20171;DHT22;10245;51.344;6.620;2023-03-01T13:45:34;7.10;44.80
20171;DHT22;10245;51.344;6.620;2023-03-01T13:48:03;7.20;46.80
20171;DHT22;10245;51.344;6.620;2023-03-01T13:50:36;7.20;47.60
20171;DHT22;10245;51.344;6.620;2023-03-01T13:53:05;7.40;46.10
20171;DHT22;10245;51.344;6.620;2023-03-01T13:55:37;7.20;47.10
20171;DHT22;10245;51.344;6.620;2023-03-01T13:58:22;7.10;46.90
20171;DHT22;10245;51.344;6.620;2023-03-01T14:00:55;7.30;46.50
20171;DHT22;10245;51.344;6.620;2023-03-01T14:03:20;7.40;45.40
20171;DHT22;10245;51.344;6.620;2023-03-01T14:05:58;7.30;45.20
20171;DHT22;10245;51.344;6.620;2023-03-01T14:08:36;7.20;45.30
20171;DHT22;10245;51.344;6.620;2023-03-01T14:11:55;7.30;44.80
20171;DHT22;10245;51.344;6.620;2023-03-01T14:14:44;7.30;44.50
20171;DHT22;10245;51.344;6.620;2023-03-01T14:17:31;7.50;46.10
20171;DHT22;10245;51.344;6.620;2023-03-01T14:20:10;7.30;45.50
20171;DHT22;10245;51.344;6.620;2023-03-01T14:22:37;7.50;45.60
20171;DHT22;10245;51.344;6.620;2023-03-01T14:25:06;7.30;44.90
20171;DHT22;10245;51.344;6.620;2023-03-01T14:27:42;7.70;44.30
20171;DHT22;10245;51.344;6.620;2023-03-01T14:30:12;7.50;44.50
20171;DHT22;10245;51.344;6.620;2023-03-01T14:32:39;7.60;46.90
20171;DHT22;10245;51.344;6.620;2023-03-01T14:35:02;7.70;45.30
20171;DHT22;10245;51.344;6.620;2023-03-01T14:37:29;7.50;45.90
20171;DHT22;10245;51.344;6.620;2023-03-01T14:39:55;7.50;46.00
20171;DHT22;10245;51.344;6.620;2023-03-01T14:42:19;7.50;46.10
20171;DHT22;10245;51.344;6.620;2023-03-01T14:44:46;7.80;46.50
20171;DHT22;10245;51.344;6.620;2023-03-01T14:47:15;8.10;46.20
20171;DHT22;10245;51.344;6.620;2023-03-01T14:49:54;7.90;44.30
20171;DHT22;10245;51.344;6.620;2023-03-01T14:52:25;7.70;45.80
20171;DHT22;10245;51.344;6.620;2023-03-01T14:54:56;7.80;44.40
20171;DHT22;10245;51.344;6.620;2023-03-01T14:57:22;7.90;44.60
20171;DHT22;10245;51.344;6.620;2023-03-01T14:59:47;7.80;44.80
20171;DHT22;10245;51.344;6.620;2023-03-01T15:02:15;7.50;45.50
20171;DHT22;10245;51.344;6.620;2023-03-01T15:04:41;7.70;46.40
20171;DHT22;10245;51.344;6.620;2023-03-01T15:07:12;7.50;46.40
20171;DHT22;10245;51.344;6.620;2023-03-01T15:09:36;7.50;45.30
20171;DHT22;10245;51.344;6.620;2023-03-01T15:12:00;7.60;46.10
20171;DHT22;10245;51.344;6.620;2023-03-01T15:14:28;7.70;46.50
20171;DHT22;10245;51.344;6.620;2023-03-01T15:16:59;7.50;46.00
20171;DHT22;10245;51.344;6.620;2023-03-01T15:19:24;7.70;45.70
20171;DHT22;10245;51.344;6.620;2023-03-01T15:21:49;7.60;45.40
20171;DHT22;10245;51.344;6.620;2023-03-01T15:24:20;7.50;45.60
20171;DHT22;10245;51.344;6.620;2023-03-01T15:26:50;7.60;46.40
20171;DHT22;10245;51.344;6.620;2023-03-01T15:29:19;7.80;44.70
20171;DHT22;10245;51.344;6.620;2023-03-01T15:31:54;7.60;45.30
20171;DHT22;10245;51.344;6.620;2023-03-01T15:34:24;7.50;46.10
20171;DHT22;10245;51.344;6.620;2023-03-01T15:36:49;7.60;45.90
20171;DHT22;10245;51.344;6.620;2023-03-01T15:39:36;7.50;47.20
20171;DHT22;10245;51.344;6.620;2023-03-01T15:42:01;7.70;46.30
20171;DHT22;10245;51.344;6.620;2023-03-01T15:44:27;7.90;48.60
20171;DHT22;10245;51.344;6.620;2023-03-01T15:47:21;8.00;47.40
20171;DHT22;10245;51.344;6.620;2023-03-01T15:49:46;7.90;48.60
20171;DHT22;10245;51.344;6.620;2023-03-01T15:52:22;7.50;47.40
20171;DHT22;10245;51.344;6.620;2023-03-01T15:54:52;7.50;47.40
20171;DHT22;10245;51.344;6.620;2023-03-01T15:57:15;7.50;47.70